Ashcamp, KY

03:43 PM EDT em 25 de Abril de 2015 (GMT -0400)
Tazewell County | | Change Station
CLOSE
Current Station
Aeroporto
Location: Richlands,
Altitude: 2651 ft
Estações Meteorológicas Próximas

Elev 2651 ft 37.06 °N, 81.80 °W | Updated 8 minutes ago

Muito Nublado
Muito Nublado
63 °F
Aparente 63 °F
N
8
Vento Variável Vento de Oeste

Hoje
Máxima -- | Mínima -- °F
--% Possibilidade de Precip.
Ontem
Máxima -- | Mínima -- °F
Precip. -- pol
6:42 AM 8:13 PM
Quarto crescente, 48% visible
Pressão 29.66 pol
Visibilidade 10.0 milhas
Nuvens Céu Limpo
Ponto de Orvalho 37 °F
Humidade 38%
Chuva 0.16 pol
Altura de Neve Não disponível
UV 8 em vez de 12
Pólen 4.80 em vez de 12
Qualidade do Ar Não disponível
Flu Activity Local Activity
METAR KJFZ 251935Z AUTO 26007KT 220V280 10SM CLR 17/03 A2966 RMK AO2 T01710028

More Conditions Fewer Conditions

Pressão 29.66 pol
Visibilidade 10.0 milhas
Nuvens Céu Limpo
Ponto de Orvalho 37 °F
Humidade 38%
Chuva 0.16 pol
Altura de Neve Não disponível
UV 8 em vez de 12
Pólen 4.80 em vez de 12
Qualidade do Ar Não disponível
Flu Activity Local Activity
METAR KJFZ 251935Z AUTO 26007KT 220V280 10SM CLR 17/03 A2966 RMK AO2 T01710028

More Conditions Fewer Conditions

10-Day Weather Forecast

Almanac

Astronomia

Apr. 25, 2015 Nascer Pôr
Hora atual
Crepúsculo civil
Crepúsculo náutico
Crepúsculo astronómico
Lua
Comprimento da luz visível
Duração do Dia
Tomorrow will be .
, % of the Moon is Illuminated

Extremos de Hoje

situação na parte mais alta situação na parte mais baixa

Community

WunderPhotos

Upload Photos

1,816,791 fotografias inseridas!

WunderBlogs® & News

Nearby

Qualidade do Ar

  Qualidade do Ar Índice da Q.A. Poluente
Not available.

Altura da Neve

Estação altura Altitude

Actividade Sísmisca

Cidade Distância Mag. Hora & Data
Mínima magnitude apresentada é 2.5.

Temperaturas das Águas Costeiras

Local Temperatura

Stations

Estações Meteorológicas Próximas

Localização da Estação Temp. Sensação Térmica Ponto de Orvalho Humidade Vento Precip. Elev Actualizado Tipo